sensor_id;sensor_type;location;lat;lon;timestamp;temperature;humidity
30381;DHT22;17169;50.966;11.038;2023-04-01T00:00:58;10.50;99.90
30381;DHT22;17169;50.966;11.038;2023-04-01T00:04:00;10.60;99.90
30381;DHT22;17169;50.966;11.038;2023-04-01T00:07:03;10.60;99.90
30381;DHT22;17169;50.966;11.038;2023-04-01T00:10:07;10.60;99.90
30381;DHT22;17169;50.966;11.038;2023-04-01T00:13:11;10.60;99.90
30381;DHT22;17169;50.966;11.038;2023-04-01T00:16:14;10.60;99.90
30381;DHT22;17169;50.966;11.038;2023-04-01T00:19:17;10.60;99.90
30381;DHT22;17169;50.966;11.038;2023-04-01T00:22:19;10.60;99.90
30381;DHT22;17169;50.966;11.038;2023-04-01T00:25:23;10.60;99.90
30381;DHT22;17169;50.966;11.038;2023-04-01T00:28:27;10.60;99.90
30381;DHT22;17169;50.966;11.038;2023-04-01T00:31:29;10.60;99.90
30381;DHT22;17169;50.966;11.038;2023-04-01T00:34:32;10.70;99.90
30381;DHT22;17169;50.966;11.038;2023-04-01T00:37:34;10.70;99.90
30381;DHT22;17169;50.966;11.038;2023-04-01T00:40:39;10.60;99.90
30381;DHT22;17169;50.966;11.038;2023-04-01T00:43:45;10.70;99.90
30381;DHT22;17169;50.966;11.038;2023-04-01T00:46:48;10.70;99.90
30381;DHT22;17169;50.966;11.038;2023-04-01T00:49:52;10.70;99.90
30381;DHT22;17169;50.966;11.038;2023-04-01T00:52:56;10.70;99.90
30381;DHT22;17169;50.966;11.038;2023-04-01T00:56:01;10.70;99.90
30381;DHT22;17169;50.966;11.038;2023-04-01T00:59:10;10.70;99.90
30381;DHT22;17169;50.966;11.038;2023-04-01T01:02:15;10.70;99.90
30381;DHT22;17169;50.966;11.038;2023-04-01T01:05:22;10.70;99.90
30381;DHT22;17169;50.966;11.038;2023-04-01T01:08:33;10.70;99.90
30381;DHT22;17169;50.966;11.038;2023-04-01T01:11:42;10.70;99.90
30381;DHT22;17169;50.966;11.038;2023-04-01T01:14:53;10.70;99.90
30381;DHT22;17169;50.966;11.038;2023-04-01T01:18:01;10.70;99.90
30381;DHT22;17169;50.966;11.038;2023-04-01T01:21:35;10.70;99.90
30381;DHT22;17169;50.966;11.038;2023-04-01T01:24:54;10.70;99.90
30381;DHT22;17169;50.966;11.038;2023-04-01T01:28:08;10.70;99.90
30381;DHT22;17169;50.966;11.038;2023-04-01T01:31:17;10.70;99.90
30381;DHT22;17169;50.966;11.038;2023-04-01T01:34:27;10.70;99.90
30381;DHT22;17169;50.966;11.038;2023-04-01T01:37:34;10.70;99.90
30381;DHT22;17169;50.966;11.038;2023-04-01T01:40:40;10.70;99.90
30381;DHT22;17169;50.966;11.038;2023-04-01T01:43:46;10.70;99.90
30381;DHT22;17169;50.966;11.038;2023-04-01T01:46:49;10.70;99.90
30381;DHT22;17169;50.966;11.038;2023-04-01T01:49:53;10.70;99.90
30381;DHT22;17169;50.966;11.038;2023-04-01T01:53:08;10.70;99.90
30381;DHT22;17169;50.966;11.038;2023-04-01T01:56:12;10.70;99.90
30381;DHT22;17169;50.966;11.038;2023-04-01T01:59:16;10.70;99.90
30381;DHT22;17169;50.966;11.038;2023-04-01T02:02:20;10.60;99.90
30381;DHT22;17169;50.966;11.038;2023-04-01T02:05:24;10.60;99.90
30381;DHT22;17169;50.966;11.038;2023-04-01T02:08:32;10.60;99.90
30381;DHT22;17169;50.966;11.038;2023-04-01T02:11:39;10.70;99.90
30381;DHT22;17169;50.966;11.038;2023-04-01T02:14:49;10.70;99.90
30381;DHT22;17169;50.966;11.038;2023-04-01T02:17:54;10.60;99.90
30381;DHT22;17169;50.966;11.038;2023-04-01T02:20:59;10.60;99.90
30381;DHT22;17169;50.966;11.038;2023-04-01T02:24:06;10.60;99.90
30381;DHT22;17169;50.966;11.038;2023-04-01T02:27:09;10.60;99.90
30381;DHT22;17169;50.966;11.038;2023-04-01T02:30:14;10.60;99.90
30381;DHT22;17169;50.966;11.038;2023-04-01T02:33:17;10.50;99.90
30381;DHT22;17169;50.966;11.038;2023-04-01T02:36:21;10.50;99.90
30381;DHT22;17169;50.966;11.038;2023-04-01T02:39:25;10.50;99.90
30381;DHT22;17169;50.966;11.038;2023-04-01T02:42:28;10.40;99.90
30381;DHT22;17169;50.966;11.038;2023-04-01T02:45:30;10.50;99.90
30381;DHT22;17169;50.966;11.038;2023-04-01T02:48:33;10.40;99.90
30381;DHT22;17169;50.966;11.038;2023-04-01T02:51:35;10.40;99.90
30381;DHT22;17169;50.966;11.038;2023-04-01T02:54:39;10.40;99.90
30381;DHT22;17169;50.966;11.038;2023-04-01T02:57:41;10.50;99.90
30381;DHT22;17169;50.966;11.038;2023-04-01T03:00:44;10.50;99.90
30381;DHT22;17169;50.966;11.038;2023-04-01T03:03:46;10.50;99.90
30381;DHT22;17169;50.966;11.038;2023-04-01T03:06:48;10.50;99.90
30381;DHT22;17169;50.966;11.038;2023-04-01T03:09:52;10.50;99.90
30381;DHT22;17169;50.966;11.038;2023-04-01T03:12:55;10.50;99.90
30381;DHT22;17169;50.966;11.038;2023-04-01T03:15:57;10.50;99.90
30381;DHT22;17169;50.966;11.038;2023-04-01T03:18:59;10.40;99.90
30381;DHT22;17169;50.966;11.038;2023-04-01T03:22:03;10.40;99.90
30381;DHT22;17169;50.966;11.038;2023-04-01T03:25:07;10.40;99.90
30381;DHT22;17169;50.966;11.038;2023-04-01T03:28:10;10.40;99.90
30381;DHT22;17169;50.966;11.038;2023-04-01T03:31:13;10.30;99.90
30381;DHT22;17169;50.966;11.038;2023-04-01T03:34:16;10.30;99.90
30381;DHT22;17169;50.966;11.038;2023-04-01T03:37:19;10.30;99.90
30381;DHT22;17169;50.966;11.038;2023-04-01T03:40:23;10.30;99.90
30381;DHT22;17169;50.966;11.038;2023-04-01T03:43:27;10.30;99.90
30381;DHT22;17169;50.966;11.038;2023-04-01T03:46:29;10.30;99.90
30381;DHT22;17169;50.966;11.038;2023-04-01T03:49:32;10.30;99.90
30381;DHT22;17169;50.966;11.038;2023-04-01T03:52:35;10.20;99.90
30381;DHT22;17169;50.966;11.038;2023-04-01T03:55:39;10.20;99.90
30381;DHT22;17169;50.966;11.038;2023-04-01T03:58:41;10.20;99.90
30381;DHT22;17169;50.966;11.038;2023-04-01T04:01:46;10.20;99.90
30381;DHT22;17169;50.966;11.038;2023-04-01T04:04:48;10.20;99.90
30381;DHT22;17169;50.966;11.038;2023-04-01T04:07:51;10.20;99.90
30381;DHT22;17169;50.966;11.038;2023-04-01T04:10:57;10.10;99.90
30381;DHT22;17169;50.966;11.038;2023-04-01T04:13:59;10.10;99.90
30381;DHT22;17169;50.966;11.038;2023-04-01T04:17:03;10.10;99.90
30381;DHT22;17169;50.966;11.038;2023-04-01T04:20:06;10.20;99.90
30381;DHT22;17169;50.966;11.038;2023-04-01T04:23:09;10.10;99.90
30381;DHT22;17169;50.966;11.038;2023-04-01T04:26:14;10.10;99.90
30381;DHT22;17169;50.966;11.038;2023-04-01T04:29:16;10.10;99.90
30381;DHT22;17169;50.966;11.038;2023-04-01T04:32:19;10.10;99.90
30381;DHT22;17169;50.966;11.038;2023-04-01T04:35:21;10.10;99.90
30381;DHT22;17169;50.966;11.038;2023-04-01T04:38:24;10.10;99.90
30381;DHT22;17169;50.966;11.038;2023-04-01T04:41:27;10.10;99.90
30381;DHT22;17169;50.966;11.038;2023-04-01T04:44:30;10.20;99.90
30381;DHT22;17169;50.966;11.038;2023-04-01T04:47:32;10.20;99.90
30381;DHT22;17169;50.966;11.038;2023-04-01T04:50:35;10.20;99.90
30381;DHT22;17169;50.966;11.038;2023-04-01T04:53:37;10.10;99.90
30381;DHT22;17169;50.966;11.038;2023-04-01T04:56:41;10.20;99.90
30381;DHT22;17169;50.966;11.038;2023-04-01T04:59:43;10.20;99.90
30381;DHT22;17169;50.966;11.038;2023-04-01T05:02:46;10.10;99.90
30381;DHT22;17169;50.966;11.038;2023-04-01T05:05:49;10.10;99.90
30381;DHT22;17169;50.966;11.038;2023-04-01T05:08:52;10.20;99.90
30381;DHT22;17169;50.966;11.038;2023-04-01T05:11:55;10.20;99.90
30381;DHT22;17169;50.966;11.038;2023-04-01T05:14:58;10.30;99.90
30381;DHT22;17169;50.966;11.038;2023-04-01T05:18:00;10.30;99.90
30381;DHT22;17169;50.966;11.038;2023-04-01T05:21:03;10.30;99.90
30381;DHT22;17169;50.966;11.038;2023-04-01T05:24:08;10.30;99.90
30381;DHT22;17169;50.966;11.038;2023-04-01T05:27:12;10.30;99.90
30381;DHT22;17169;50.966;11.038;2023-04-01T05:30:15;10.30;99.90
30381;DHT22;17169;50.966;11.038;2023-04-01T05:33:17;10.30;99.90
30381;DHT22;17169;50.966;11.038;2023-04-01T05:36:19;10.30;99.90
30381;DHT22;17169;50.966;11.038;2023-04-01T05:39:22;10.20;99.90
30381;DHT22;17169;50.966;11.038;2023-04-01T05:42:25;10.30;99.90
30381;DHT22;17169;50.966;11.038;2023-04-01T05:45:28;10.30;99.90
30381;DHT22;17169;50.966;11.038;2023-04-01T05:48:30;10.30;99.90
30381;DHT22;17169;50.966;11.038;2023-04-01T05:51:34;10.30;99.90
30381;DHT22;17169;50.966;11.038;2023-04-01T05:54:37;10.30;99.90
30381;DHT22;17169;50.966;11.038;2023-04-01T05:57:40;10.40;99.90
30381;DHT22;17169;50.966;11.038;2023-04-01T06:00:43;10.40;99.90
30381;DHT22;17169;50.966;11.038;2023-04-01T06:03:46;10.40;99.90
30381;DHT22;17169;50.966;11.038;2023-04-01T06:06:48;10.50;99.90
30381;DHT22;17169;50.966;11.038;2023-04-01T06:09:50;10.60;99.90
30381;DHT22;17169;50.966;11.038;2023-04-01T06:13:00;10.70;99.90
30381;DHT22;17169;50.966;11.038;2023-04-01T06:16:12;10.70;99.90
30381;DHT22;17169;50.966;11.038;2023-04-01T06:19:27;10.80;99.90
30381;DHT22;17169;50.966;11.038;2023-04-01T06:22:46;10.90;99.90
30381;DHT22;17169;50.966;11.038;2023-04-01T06:25:58;11.00;99.90
30381;DHT22;17169;50.966;11.038;2023-04-01T06:29:21;11.10;99.90
30381;DHT22;17169;50.966;11.038;2023-04-01T06:32:40;11.20;99.90
30381;DHT22;17169;50.966;11.038;2023-04-01T06:36:15;11.30;99.90
30381;DHT22;17169;50.966;11.038;2023-04-01T06:39:33;11.40;99.90
30381;DHT22;17169;50.966;11.038;2023-04-01T06:42:52;11.40;99.90
30381;DHT22;17169;50.966;11.038;2023-04-01T06:46:02;11.50;99.90
30381;DHT22;17169;50.966;11.038;2023-04-01T06:49:21;11.60;99.90
30381;DHT22;17169;50.966;11.038;2023-04-01T06:52:31;11.80;99.90
30381;DHT22;17169;50.966;11.038;2023-04-01T06:55:42;11.90;99.90
30381;DHT22;17169;50.966;11.038;2023-04-01T06:58:49;12.10;99.90
30381;DHT22;17169;50.966;11.038;2023-04-01T07:01:55;12.20;99.90
30381;DHT22;17169;50.966;11.038;2023-04-01T07:04:59;12.20;99.90
30381;DHT22;17169;50.966;11.038;2023-04-01T07:08:04;12.30;99.90
30381;DHT22;17169;50.966;11.038;2023-04-01T07:11:14;12.30;99.90
30381;DHT22;17169;50.966;11.038;2023-04-01T07:14:22;12.30;99.90
30381;DHT22;17169;50.966;11.038;2023-04-01T07:17:30;12.40;99.90
30381;DHT22;17169;50.966;11.038;2023-04-01T07:20:36;12.40;99.90
30381;DHT22;17169;50.966;11.038;2023-04-01T07:23:42;12.60;99.90
30381;DHT22;17169;50.966;11.038;2023-04-01T07:26:47;12.60;99.90
30381;DHT22;17169;50.966;11.038;2023-04-01T07:29:56;12.60;99.90
30381;DHT22;17169;50.966;11.038;2023-04-01T07:33:04;12.50;99.90
30381;DHT22;17169;50.966;11.038;2023-04-01T07:36:14;12.40;99.90
30381;DHT22;17169;50.966;11.038;2023-04-01T07:39:28;12.30;99.90
30381;DHT22;17169;50.966;11.038;2023-04-01T07:42:39;12.40;99.90
30381;DHT22;17169;50.966;11.038;2023-04-01T07:45:47;12.30;99.90
30381;DHT22;17169;50.966;11.038;2023-04-01T07:48:58;12.30;99.90
30381;DHT22;17169;50.966;11.038;2023-04-01T07:52:06;12.30;99.90
30381;DHT22;17169;50.966;11.038;2023-04-01T07:55:16;12.30;99.90
30381;DHT22;17169;50.966;11.038;2023-04-01T07:58:28;12.30;99.90
30381;DHT22;17169;50.966;11.038;2023-04-01T08:01:38;12.50;99.90
30381;DHT22;17169;50.966;11.038;2023-04-01T08:05:03;12.50;99.90
30381;DHT22;17169;50.966;11.038;2023-04-01T08:08:11;12.60;99.90
30381;DHT22;17169;50.966;11.038;2023-04-01T08:11:28;12.70;99.90
30381;DHT22;17169;50.966;11.038;2023-04-01T08:14:44;12.80;99.90
30381;DHT22;17169;50.966;11.038;2023-04-01T08:17:59;12.90;99.90
30381;DHT22;17169;50.966;11.038;2023-04-01T08:21:11;13.00;99.90
30381;DHT22;17169;50.966;11.038;2023-04-01T08:24:23;13.10;99.90
30381;DHT22;17169;50.966;11.038;2023-04-01T08:27:33;13.10;99.90
30381;DHT22;17169;50.966;11.038;2023-04-01T08:30:41;13.20;99.90
30381;DHT22;17169;50.966;11.038;2023-04-01T08:33:46;13.20;99.90
30381;DHT22;17169;50.966;11.038;2023-04-01T08:36:52;13.30;99.90
30381;DHT22;17169;50.966;11.038;2023-04-01T08:39:59;13.20;99.90
30381;DHT22;17169;50.966;11.038;2023-04-01T08:43:09;13.30;99.90
30381;DHT22;17169;50.966;11.038;2023-04-01T08:46:42;13.20;99.90
30381;DHT22;17169;50.966;11.038;2023-04-01T08:50:17;13.30;99.90
30381;DHT22;17169;50.966;11.038;2023-04-01T08:53:37;13.40;99.90
30381;DHT22;17169;50.966;11.038;2023-04-01T08:56:53;13.50;99.90
30381;DHT22;17169;50.966;11.038;2023-04-01T09:00:08;13.50;99.90
30381;DHT22;17169;50.966;11.038;2023-04-01T09:03:39;13.50;99.90
30381;DHT22;17169;50.966;11.038;2023-04-01T09:06:52;13.60;99.90
30381;DHT22;17169;50.966;11.038;2023-04-01T09:10:28;13.60;99.90
30381;DHT22;17169;50.966;11.038;2023-04-01T09:17:26;13.40;99.90
30381;DHT22;17169;50.966;11.038;2023-04-01T09:20:45;13.40;99.90
30381;DHT22;17169;50.966;11.038;2023-04-01T09:27:44;13.40;99.90
30381;DHT22;17169;50.966;11.038;2023-04-01T09:34:37;13.30;99.90
30381;DHT22;17169;50.966;11.038;2023-04-01T09:37:53;13.30;99.90
30381;DHT22;17169;50.966;11.038;2023-04-01T09:44:11;13.50;99.90
30381;DHT22;17169;50.966;11.038;2023-04-01T09:47:29;13.60;99.90
30381;DHT22;17169;50.966;11.038;2023-04-01T09:50:45;13.70;99.90
30381;DHT22;17169;50.966;11.038;2023-04-01T09:54:01;13.90;99.90
30381;DHT22;17169;50.966;11.038;2023-04-01T09:57:53;13.90;99.90
30381;DHT22;17169;50.966;11.038;2023-04-01T10:05:27;13.80;99.90
30381;DHT22;17169;50.966;11.038;2023-04-01T10:09:02;13.70;99.90
30381;DHT22;17169;50.966;11.038;2023-04-01T10:20:16;14.00;99.90
30381;DHT22;17169;50.966;11.038;2023-04-01T10:23:33;14.10;99.90
30381;DHT22;17169;50.966;11.038;2023-04-01T10:27:09;14.10;99.90
30381;DHT22;17169;50.966;11.038;2023-04-01T10:37:54;14.20;99.90
30381;DHT22;17169;50.966;11.038;2023-04-01T10:41:24;14.30;99.90
30381;DHT22;17169;50.966;11.038;2023-04-01T10:44:55;14.30;99.90
30381;DHT22;17169;50.966;11.038;2023-04-01T10:48:22;14.30;99.90
30381;DHT22;17169;50.966;11.038;2023-04-01T10:51:52;14.20;99.90
30381;DHT22;17169;50.966;11.038;2023-04-01T10:55:25;14.30;99.90
30381;DHT22;17169;50.966;11.038;2023-04-01T11:18:00;14.20;99.90
30381;DHT22;17169;50.966;11.038;2023-04-01T11:21:13;14.10;99.90
30381;DHT22;17169;50.966;11.038;2023-04-01T11:24:31;14.10;99.90
30381;DHT22;17169;50.966;11.038;2023-04-01T11:28:06;14.00;99.90
30381;DHT22;17169;50.966;11.038;2023-04-01T11:31:31;13.90;99.90
30381;DHT22;17169;50.966;11.038;2023-04-01T11:34:56;13.80;99.90
30381;DHT22;17169;50.966;11.038;2023-04-01T11:38:06;13.80;99.90
30381;DHT22;17169;50.966;11.038;2023-04-01T11:41:22;13.90;99.90
30381;DHT22;17169;50.966;11.038;2023-04-01T11:44:29;13.90;99.90
30381;DHT22;17169;50.966;11.038;2023-04-01T11:47:56;13.80;99.90
30381;DHT22;17169;50.966;11.038;2023-04-01T11:51:15;13.80;99.90
30381;DHT22;17169;50.966;11.038;2023-04-01T11:54:39;13.80;99.90
30381;DHT22;17169;50.966;11.038;2023-04-01T11:57:51;13.80;99.90
30381;DHT22;17169;50.966;11.038;2023-04-01T12:01:20;13.80;99.90
30381;DHT22;17169;50.966;11.038;2023-04-01T12:04:40;13.80;99.90
30381;DHT22;17169;50.966;11.038;2023-04-01T12:07:56;13.80;99.90
30381;DHT22;17169;50.966;11.038;2023-04-01T12:11:05;13.80;99.90
30381;DHT22;17169;50.966;11.038;2023-04-01T12:14:16;13.70;99.90
30381;DHT22;17169;50.966;11.038;2023-04-01T12:17:27;13.80;99.90
30381;DHT22;17169;50.966;11.038;2023-04-01T12:20:44;13.90;99.90
30381;DHT22;17169;50.966;11.038;2023-04-01T12:24:22;13.90;99.90
30381;DHT22;17169;50.966;11.038;2023-04-01T12:27:35;13.90;99.90
30381;DHT22;17169;50.966;11.038;2023-04-01T12:30:51;14.00;99.90
30381;DHT22;17169;50.966;11.038;2023-04-01T12:37:34;14.10;99.90
30381;DHT22;17169;50.966;11.038;2023-04-01T12:40:47;14.10;99.90
30381;DHT22;17169;50.966;11.038;2023-04-01T12:44:13;14.10;99.90
30381;DHT22;17169;50.966;11.038;2023-04-01T12:47:51;14.10;99.90
30381;DHT22;17169;50.966;11.038;2023-04-01T12:55:12;13.80;99.90
30381;DHT22;17169;50.966;11.038;2023-04-01T12:58:34;13.80;99.90
30381;DHT22;17169;50.966;11.038;2023-04-01T13:01:56;13.90;99.90
30381;DHT22;17169;50.966;11.038;2023-04-01T13:08:41;14.00;99.90
30381;DHT22;17169;50.966;11.038;2023-04-01T13:12:00;14.10;99.90
30381;DHT22;17169;50.966;11.038;2023-04-01T13:15:19;14.10;99.90
30381;DHT22;17169;50.966;11.038;2023-04-01T13:18:32;14.20;99.90
30381;DHT22;17169;50.966;11.038;2023-04-01T13:21:47;14.20;99.90
30381;DHT22;17169;50.966;11.038;2023-04-01T13:24:58;14.20;99.90
30381;DHT22;17169;50.966;11.038;2023-04-01T13:28:10;14.10;99.90
30381;DHT22;17169;50.966;11.038;2023-04-01T13:31:36;14.10;99.90
30381;DHT22;17169;50.966;11.038;2023-04-01T13:34:50;14.10;99.90
30381;DHT22;17169;50.966;11.038;2023-04-01T13:41:38;14.30;99.90
30381;DHT22;17169;50.966;11.038;2023-04-01T13:44:48;14.20;99.90
30381;DHT22;17169;50.966;11.038;2023-04-01T13:51:39;14.20;99.90
30381;DHT22;17169;50.966;11.038;2023-04-01T13:55:06;14.30;99.90
30381;DHT22;17169;50.966;11.038;2023-04-01T14:01:59;14.30;99.90
30381;DHT22;17169;50.966;11.038;2023-04-01T14:05:25;14.50;99.90
30381;DHT22;17169;50.966;11.038;2023-04-01T14:12:26;14.90;99.90
30381;DHT22;17169;50.966;11.038;2023-04-01T14:15:55;14.90;99.90
30381;DHT22;17169;50.966;11.038;2023-04-01T14:19:11;14.80;99.90
30381;DHT22;17169;50.966;11.038;2023-04-01T14:22:25;14.70;99.90
30381;DHT22;17169;50.966;11.038;2023-04-01T14:25:43;14.80;99.90
30381;DHT22;17169;50.966;11.038;2023-04-01T14:28:56;14.90;99.90
30381;DHT22;17169;50.966;11.038;2023-04-01T14:32:10;15.00;99.90
30381;DHT22;17169;50.966;11.038;2023-04-01T14:35:33;15.10;99.90
30381;DHT22;17169;50.966;11.038;2023-04-01T14:38:47;15.20;99.90
30381;DHT22;17169;50.966;11.038;2023-04-01T14:42:04;15.20;99.90
30381;DHT22;17169;50.966;11.038;2023-04-01T14:45:40;15.20;99.90
30381;DHT22;17169;50.966;11.038;2023-04-01T14:48:51;15.30;99.90
30381;DHT22;17169;50.966;11.038;2023-04-01T14:52:04;15.40;99.90
30381;DHT22;17169;50.966;11.038;2023-04-01T14:55:23;15.40;99.90
30381;DHT22;17169;50.966;11.038;2023-04-01T14:58:41;15.30;99.90
30381;DHT22;17169;50.966;11.038;2023-04-01T15:01:50;15.10;99.90
30381;DHT22;17169;50.966;11.038;2023-04-01T15:04:57;14.90;99.90
30381;DHT22;17169;50.966;11.038;2023-04-01T15:08:10;14.70;99.90
30381;DHT22;17169;50.966;11.038;2023-04-01T15:11:32;14.50;99.90
30381;DHT22;17169;50.966;11.038;2023-04-01T15:14:52;14.40;99.90
30381;DHT22;17169;50.966;11.038;2023-04-01T15:18:08;14.40;99.90
30381;DHT22;17169;50.966;11.038;2023-04-01T15:21:23;14.30;99.90
30381;DHT22;17169;50.966;11.038;2023-04-01T15:24:41;14.20;99.90
30381;DHT22;17169;50.966;11.038;2023-04-01T15:27:51;14.10;99.90
30381;DHT22;17169;50.966;11.038;2023-04-01T15:30:58;14.00;99.90
30381;DHT22;17169;50.966;11.038;2023-04-01T15:34:26;13.90;99.90
30381;DHT22;17169;50.966;11.038;2023-04-01T15:37:39;13.90;99.90
30381;DHT22;17169;50.966;11.038;2023-04-01T15:40:49;13.80;99.90
30381;DHT22;17169;50.966;11.038;2023-04-01T15:43:55;13.80;99.90
30381;DHT22;17169;50.966;11.038;2023-04-01T15:46:58;13.70;99.90
30381;DHT22;17169;50.966;11.038;2023-04-01T15:50:36;13.80;99.90
30381;DHT22;17169;50.966;11.038;2023-04-01T15:53:54;13.80;99.90
30381;DHT22;17169;50.966;11.038;2023-04-01T15:57:10;13.90;99.90
30381;DHT22;17169;50.966;11.038;2023-04-01T16:00:24;13.80;99.90
30381;DHT22;17169;50.966;11.038;2023-04-01T16:03:35;13.70;99.90
30381;DHT22;17169;50.966;11.038;2023-04-01T16:06:53;13.60;99.90
30381;DHT22;17169;50.966;11.038;2023-04-01T16:10:09;13.50;99.90
30381;DHT22;17169;50.966;11.038;2023-04-01T16:13:24;13.50;99.90
30381;DHT22;17169;50.966;11.038;2023-04-01T16:16:50;13.40;99.90
30381;DHT22;17169;50.966;11.038;2023-04-01T16:19:59;13.30;99.90
30381;DHT22;17169;50.966;11.038;2023-04-01T16:23:12;13.30;99.90
30381;DHT22;17169;50.966;11.038;2023-04-01T16:26:22;13.20;99.90
30381;DHT22;17169;50.966;11.038;2023-04-01T16:29:35;13.10;99.90
30381;DHT22;17169;50.966;11.038;2023-04-01T16:32:45;13.00;99.90
30381;DHT22;17169;50.966;11.038;2023-04-01T16:35:56;12.90;99.90
30381;DHT22;17169;50.966;11.038;2023-04-01T16:39:26;12.90;99.90
30381;DHT22;17169;50.966;11.038;2023-04-01T16:42:38;12.90;99.90
30381;DHT22;17169;50.966;11.038;2023-04-01T16:45:52;12.90;99.90
30381;DHT22;17169;50.966;11.038;2023-04-01T16:49:00;12.90;99.90
30381;DHT22;17169;50.966;11.038;2023-04-01T16:52:16;12.80;99.90
30381;DHT22;17169;50.966;11.038;2023-04-01T16:55:21;12.80;99.90
30381;DHT22;17169;50.966;11.038;2023-04-01T16:58:26;12.80;99.90
30381;DHT22;17169;50.966;11.038;2023-04-01T17:01:40;12.70;99.90
30381;DHT22;17169;50.966;11.038;2023-04-01T17:04:47;12.70;99.90
30381;DHT22;17169;50.966;11.038;2023-04-01T17:08:06;12.70;99.90
30381;DHT22;17169;50.966;11.038;2023-04-01T17:11:16;12.70;99.90
30381;DHT22;17169;50.966;11.038;2023-04-01T17:14:24;12.70;99.90
30381;DHT22;17169;50.966;11.038;2023-04-01T17:17:37;12.70;99.90
30381;DHT22;17169;50.966;11.038;2023-04-01T17:20:42;12.60;99.90
30381;DHT22;17169;50.966;11.038;2023-04-01T17:23:50;12.60;99.90
30381;DHT22;17169;50.966;11.038;2023-04-01T17:27:00;12.60;99.90
30381;DHT22;17169;50.966;11.038;2023-04-01T17:30:25;12.60;99.90
30381;DHT22;17169;50.966;11.038;2023-04-01T17:37:32;12.60;99.90
30381;DHT22;17169;50.966;11.038;2023-04-01T17:40:49;12.60;99.90
30381;DHT22;17169;50.966;11.038;2023-04-01T17:44:03;12.50;99.90
30381;DHT22;17169;50.966;11.038;2023-04-01T17:47:29;12.50;99.90
30381;DHT22;17169;50.966;11.038;2023-04-01T17:50:48;12.50;99.90
30381;DHT22;17169;50.966;11.038;2023-04-01T17:53:59;12.50;99.90
30381;DHT22;17169;50.966;11.038;2023-04-01T17:57:22;12.50;99.90
30381;DHT22;17169;50.966;11.038;2023-04-01T18:00:29;12.50;99.90
30381;DHT22;17169;50.966;11.038;2023-04-01T18:04:07;12.50;99.90
30381;DHT22;17169;50.966;11.038;2023-04-01T18:07:30;12.50;99.90
30381;DHT22;17169;50.966;11.038;2023-04-01T18:10:47;12.40;99.90
30381;DHT22;17169;50.966;11.038;2023-04-01T18:14:19;12.40;99.90
30381;DHT22;17169;50.966;11.038;2023-04-01T18:17:27;12.50;99.90
30381;DHT22;17169;50.966;11.038;2023-04-01T18:20:42;12.40;99.90
30381;DHT22;17169;50.966;11.038;2023-04-01T18:23:50;12.40;99.90
30381;DHT22;17169;50.966;11.038;2023-04-01T18:27:03;12.30;99.90
30381;DHT22;17169;50.966;11.038;2023-04-01T18:30:11;12.30;99.90
30381;DHT22;17169;50.966;11.038;2023-04-01T18:33:21;12.30;99.90
30381;DHT22;17169;50.966;11.038;2023-04-01T18:36:36;12.20;99.90
30381;DHT22;17169;50.966;11.038;2023-04-01T18:39:41;12.20;99.90
30381;DHT22;17169;50.966;11.038;2023-04-01T18:42:55;12.20;99.90
30381;DHT22;17169;50.966;11.038;2023-04-01T18:46:05;12.20;99.90
30381;DHT22;17169;50.966;11.038;2023-04-01T18:49:16;12.20;99.90
30381;DHT22;17169;50.966;11.038;2023-04-01T18:52:26;12.10;99.90
30381;DHT22;17169;50.966;11.038;2023-04-01T18:55:35;12.10;99.90
30381;DHT22;17169;50.966;11.038;2023-04-01T18:58:48;12.10;99.90
30381;DHT22;17169;50.966;11.038;2023-04-01T19:02:00;12.10;99.90
30381;DHT22;17169;50.966;11.038;2023-04-01T19:05:10;12.00;99.90
30381;DHT22;17169;50.966;11.038;2023-04-01T19:08:26;12.00;99.90
30381;DHT22;17169;50.966;11.038;2023-04-01T19:11:30;12.00;99.90
30381;DHT22;17169;50.966;11.038;2023-04-01T19:14:53;12.00;99.90
30381;DHT22;17169;50.966;11.038;2023-04-01T19:18:09;12.00;99.90
30381;DHT22;17169;50.966;11.038;2023-04-01T19:21:19;12.00;99.90
30381;DHT22;17169;50.966;11.038;2023-04-01T19:24:42;12.00;99.90
30381;DHT22;17169;50.966;11.038;2023-04-01T19:27:50;12.00;99.90
30381;DHT22;17169;50.966;11.038;2023-04-01T19:30:57;12.00;99.90
30381;DHT22;17169;50.966;11.038;2023-04-01T19:34:08;11.90;99.90
30381;DHT22;17169;50.966;11.038;2023-04-01T19:37:25;11.90;99.90
30381;DHT22;17169;50.966;11.038;2023-04-01T19:40:42;11.90;99.90
30381;DHT22;17169;50.966;11.038;2023-04-01T19:43:53;11.90;99.90
30381;DHT22;17169;50.966;11.038;2023-04-01T19:47:04;11.90;99.90
30381;DHT22;17169;50.966;11.038;2023-04-01T19:50:20;11.90;99.90
30381;DHT22;17169;50.966;11.038;2023-04-01T19:53:34;11.80;99.90
30381;DHT22;17169;50.966;11.038;2023-04-01T19:56:43;11.80;99.90
30381;DHT22;17169;50.966;11.038;2023-04-01T19:59:50;11.80;99.90
30381;DHT22;17169;50.966;11.038;2023-04-01T20:03:03;11.80;99.90
30381;DHT22;17169;50.966;11.038;2023-04-01T20:06:16;11.80;99.90
30381;DHT22;17169;50.966;11.038;2023-04-01T20:09:45;11.80;99.90
30381;DHT22;17169;50.966;11.038;2023-04-01T20:12:55;11.80;99.90
30381;DHT22;17169;50.966;11.038;2023-04-01T20:16:01;11.80;99.90
30381;DHT22;17169;50.966;11.038;2023-04-01T20:19:07;11.80;99.90
30381;DHT22;17169;50.966;11.038;2023-04-01T20:22:38;11.70;99.90
30381;DHT22;17169;50.966;11.038;2023-04-01T20:25:56;11.70;99.90
30381;DHT22;17169;50.966;11.038;2023-04-01T20:29:27;11.70;99.90
30381;DHT22;17169;50.966;11.038;2023-04-01T20:33:02;11.70;99.90
30381;DHT22;17169;50.966;11.038;2023-04-01T20:36:16;11.80;99.90
30381;DHT22;17169;50.966;11.038;2023-04-01T20:39:45;11.70;99.90
30381;DHT22;17169;50.966;11.038;2023-04-01T20:43:07;11.70;99.90
30381;DHT22;17169;50.966;11.038;2023-04-01T20:46:19;11.70;99.90
30381;DHT22;17169;50.966;11.038;2023-04-01T20:49:33;11.60;99.90
30381;DHT22;17169;50.966;11.038;2023-04-01T20:52:49;11.60;99.90
30381;DHT22;17169;50.966;11.038;2023-04-01T20:56:06;11.60;99.90
30381;DHT22;17169;50.966;11.038;2023-04-01T20:59:26;11.60;99.90
30381;DHT22;17169;50.966;11.038;2023-04-01T21:02:47;11.50;99.90
30381;DHT22;17169;50.966;11.038;2023-04-01T21:06:18;11.60;99.90
30381;DHT22;17169;50.966;11.038;2023-04-01T21:12:53;11.60;99.90
30381;DHT22;17169;50.966;11.038;2023-04-01T21:16:11;11.50;99.90
30381;DHT22;17169;50.966;11.038;2023-04-01T21:19:34;11.50;99.90